Relevés horaires Elsenborn (Belgique)


Relevés horaires à Elsenborn - Vendredi 01 Juill. 2022
Heure UTC1 Température [°C] Vent [km/h] Hum. [%] Pres.4 [hPa] Visi. [Km] Nébu. [octa] Préc.5 [mm] Cond.
2m. Res. Ros. Dir.2 Vit. Moy. Raf.3
23:00 6.8 6.8 6.2 NNO 1.9 -- 1.9 96 1024.5(1.1/3h) 20 -- -- --
22:00 7.7 7.7 7.0 NNO 1.9 -- 1.9 95 1024.2(1.5/3h) 20 -- -- --
21:00 9.5 9.5 8.0 NNO 0.0 -- 9.3 90 1023.3(1.5/3h) 20 -- -- --
20:00 12.3 12.3 8.1 NNO 1.9 -- 5.6 76 1022.1(1.2/3h) 20 -- -- --
19:00 15.3 15.3 7.8 NNO 1.9 -- 9.3 61 1020.7(0.8/3h) 20 -- -- --
18:00 15.8 15.8 8.2 SO 3.7 -- 14.8 61 1020.2(0.8/3h) 19 -- -- --
17:00 15.7 15.7 8.1 SO 5.6 -- 13.0 61 1020(0.7/3h) 17 -- -- --
16:00 15.7 15.7 7.5 OSO 3.7 -- 14.8 58 1019.7(0.8/3h) 20 -- -- --
15:00 17.6 17.6 6.3 O 5.6 -- 14.8 47 1019(0.7/3h) 20 -- -- --
14:00 15.9 15.9 6.1 SO 5.6 -- 14.8 52 1019.1(0.5/3h) 20 -- -- --
13:00 15.9 15.9 6.3 OSO 7.4 -- 13.0 53 1018.7(0.3/3h) 20 -- -- --
12:00 15.4 15.4 8.2 O 7.4 -- 13.0 62 1018.7(0.6/3h) 20 -- -- --
11:00 14.1 13.9 5.8 O 7.4 -- 13.0 57 1019.1(0.9/3h) 20 -- -- --
10:00 13.8 13.6 7.2 OSO 7.4 -- 13.0 64 1019(1.0/3h) 20 -- -- --
09:00 13.3 13.3 8.2 OSO 5.6 -- 11.1 71 1018.5(1.1/3h) 20 -- -- --
08:00 12.2 12.1 8.6 OSO 5.6 -- 11.1 79 1018.3(1.0/3h) 20 -- -- --
07:00 10.6 10.3 9.3 OSO 5.6 -- 9.3 92 1018.5(0.5/3h) 20 -- -- --
06:00 10.5 10.2 9.5 OSO 5.6 -- 13.0 94 1017.8(0.4/3h) 20 -- 0.1/12h
--
05:00 10.1 10.1 9.3 SO 3.7 -- 7.4 95 1017.7(0.5/3h) 14 -- -- --
04:00 9.8 9.8 9.1 SSO 3.7 -- 7.4 95 1018.1(1.1/3h) 13 -- -- --
03:00 9.8 9.8 8.9 NNO 1.9 -- 13.0 94 1017.5(0.8/3h) 19 -- -- --
02:00 9.8 9.8 9.0 SO 3.7 -- 13.0 95 1017.2(0.2/3h) 20 -- -- --
01:00 10.1 9.7 9.3 OSO 5.6 -- 9.3 95 1016.7(0.0/3h) 20 -- -- --
00:00 10.1 10.1 9.4 O 3.7 -- 13.0 95 1016.3(0.7/3h) 20 -- 0.1/6h
NA

1 Coordinated Universal Time. Actuellement il est 20:00 locale et 18:00 UTC.

2 Le vent souffle depuis la direction indiquée vers la direction oposée.

3 Les rafales max. sont disponible 40 min après l'heure du relevé.

4 Pour les stations d'altitude (plus de 600m) le géopotentiel du niveau le plus proche de la pression obligatoire est indiqué.

5 Les stations disposant d'un diffuseur peuvent indiquer "trace". Cela signifie que des précipitations ont touchés le sol mais que la quantité est inférieure à 0.1 mm.

Récapitulatif de la journée
Température [°C] Vent [km/h] Ensoleillement4 [h] Precipitations totale5 [mm] Pression [Hpa]
Min1 Max.2 Moy.3 Max. Min Max.
9.6 17.6 0 14.8 0 h 0 min 0 1016.3 1024.5

1 Température minimale relevée entre 18:00 UTC la veille et 18:00 UTC le jour donné.

2 Température maximale relevée entre 06:00 UTC le jour donné et 06:00 UTC le lendemain.

3 Vent moyen de la journée basé sur les relevés horaires.

4 Ensoleillement en heures relevé entre 06:00 UTC la veille et 06:00 UTC le jour donné.

5 Précipitations totales tombées entre 06:00 UTC la jour donné et 06:00 UTC le lendemain.

Graphiques horaires